createdAt,value
2019-03-23T00:00:49.650Z,59.03
2019-03-23T00:03:39.550Z,58.50
2019-03-23T00:06:30.947Z,60.53
2019-03-23T00:09:20.384Z,55.27
2019-03-23T00:12:10.010Z,56.13
2019-03-23T00:14:59.166Z,60.10
2019-03-23T00:17:48.971Z,58.10
2019-03-23T00:20:38.780Z,60.60
2019-03-23T00:23:28.600Z,59.97
2019-03-23T00:26:18.651Z,58.07
2019-03-23T00:29:08.413Z,62.20
2019-03-23T00:31:57.842Z,68.57
2019-03-23T00:34:47.457Z,59.70
2019-03-23T00:37:37.150Z,66.43
2019-03-23T00:40:26.707Z,64.87
2019-03-23T00:43:17.181Z,60.40
2019-03-23T00:46:06.113Z,62.90
2019-03-23T00:48:55.602Z,68.20
2019-03-23T00:51:44.684Z,72.90
2019-03-23T00:54:34.062Z,74.37
2019-03-23T00:57:23.133Z,75.80
2019-03-23T01:00:12.912Z,69.73
2019-03-23T01:03:02.838Z,76.70
2019-03-23T01:05:52.310Z,90.10
2019-03-23T01:08:41.493Z,87.30
2019-03-23T01:11:31.170Z,87.17
2019-03-23T01:14:20.559Z,92.40
2019-03-23T01:17:10.221Z,96.53
2019-03-23T01:19:59.562Z,102.07
2019-03-23T01:22:49.301Z,105.83
2019-03-23T01:25:38.081Z,109.00
2019-03-23T01:28:27.518Z,123.23
2019-03-23T01:31:17.276Z,122.13
2019-03-23T01:34:06.792Z,118.27
2019-03-23T01:36:37.401Z,107.40
2019-03-23T01:39:27.111Z,113.40
2019-03-23T01:42:16.284Z,104.57
2019-03-23T01:45:06.697Z,120.77
2019-03-23T01:47:56.211Z,132.70
2019-03-23T01:50:46.219Z,122.30
2019-03-23T01:53:35.320Z,121.47
2019-03-23T01:56:24.767Z,139.00
2019-03-23T01:59:14.617Z,139.53
2019-03-23T02:02:03.818Z,138.00
2019-03-23T02:04:53.709Z,155.40
2019-03-23T02:07:43.417Z,158.43
2019-03-23T02:10:32.876Z,147.23
2019-03-23T02:13:22.080Z,159.63
2019-03-23T02:16:11.692Z,136.70
2019-03-23T02:19:00.756Z,158.27
2019-03-23T02:21:50.539Z,156.83
2019-03-23T02:24:40.034Z,169.93
2019-03-23T02:27:29.616Z,175.23
2019-03-23T02:30:19.444Z,178.10
2019-03-23T02:33:09.595Z,186.77
2019-03-23T02:35:58.741Z,174.47
2019-03-23T02:38:48.539Z,172.63
2019-03-23T02:41:37.890Z,171.27
2019-03-23T02:44:28.118Z,169.73
2019-03-23T02:47:17.698Z,186.93
2019-03-23T02:50:09.059Z,183.53
2019-03-23T02:52:58.921Z,185.70
2019-03-23T02:55:48.135Z,185.83
2019-03-23T02:58:37.815Z,190.80
2019-03-23T03:01:26.672Z,193.80
2019-03-23T03:04:15.899Z,197.13
2019-03-23T03:07:05.341Z,192.63
2019-03-23T03:09:54.693Z,181.77
2019-03-23T03:12:44.591Z,185.07
2019-03-23T03:15:34.289Z,182.53
2019-03-23T03:18:07.154Z,187.13
2019-03-23T03:20:56.626Z,214.20
2019-03-23T03:23:46.171Z,196.37
2019-03-23T03:26:35.875Z,197.57
2019-03-23T03:29:15.705Z,180.93
2019-03-23T03:32:05.141Z,205.17
2019-03-23T03:34:55.036Z,199.10
2019-03-23T03:37:56.008Z,205.63
2019-03-23T03:40:31.247Z,194.63
2019-03-23T03:43:20.720Z,217.13
2019-03-23T03:46:09.657Z,195.83
2019-03-23T03:49:11.853Z,186.93
2019-03-23T03:51:50.098Z,203.77
2019-03-23T03:54:39.308Z,202.13
2019-03-23T03:57:28.531Z,201.03
2019-03-23T04:00:18.382Z,200.67
2019-03-23T04:02:49.411Z,213.53
2019-03-23T04:05:39.248Z,194.93
2019-03-23T04:08:28.409Z,189.27
2019-03-23T04:11:17.578Z,207.37
2019-03-23T04:14:07.068Z,218.63
2019-03-23T04:16:56.895Z,197.60
2019-03-23T04:19:46.470Z,202.13
2019-03-23T04:22:36.249Z,212.20
2019-03-23T04:25:25.872Z,215.90
2019-03-23T04:28:16.268Z,190.43
2019-03-23T04:31:05.235Z,208.20
2019-03-23T04:33:54.370Z,193.97
2019-03-23T04:36:43.457Z,222.00
2019-03-23T04:39:33.116Z,190.47
2019-03-23T04:42:22.924Z,193.03
2019-03-23T04:45:12.889Z,197.03
2019-03-23T04:48:01.869Z,199.00
2019-03-23T04:50:51.489Z,174.43
2019-03-23T04:53:41.164Z,198.20
2019-03-23T04:56:14.570Z,186.00
2019-03-23T04:59:03.296Z,174.00
2019-03-23T05:01:53.198Z,186.90
2019-03-23T05:04:42.656Z,206.10
2019-03-23T05:07:32.087Z,190.87
2019-03-23T05:10:20.876Z,191.77
2019-03-23T05:13:10.394Z,170.57
2019-03-23T05:15:59.532Z,197.10
2019-03-23T05:18:49.066Z,182.33
2019-03-23T05:21:38.615Z,187.83
2019-03-23T05:24:27.614Z,175.80
2019-03-23T05:27:17.343Z,190.87
2019-03-23T05:30:08.151Z,192.47
2019-03-23T05:32:43.099Z,190.87
2019-03-23T05:35:32.311Z,203.70
2019-03-23T05:38:21.667Z,200.47
2019-03-23T05:41:11.730Z,199.33
2019-03-23T05:44:01.443Z,190.37
2019-03-23T05:46:50.747Z,180.57
2019-03-23T05:49:40.367Z,200.07
2019-03-23T05:52:29.363Z,226.40
2019-03-23T05:55:18.744Z,190.67
2019-03-23T05:58:07.954Z,199.07
2019-03-23T06:00:57.216Z,183.80
2019-03-23T06:03:46.542Z,187.07
2019-03-23T06:06:36.546Z,164.80
2019-03-23T06:09:26.347Z,165.93
2019-03-23T06:12:09.252Z,175.73
2019-03-23T06:14:58.540Z,176.13
2019-03-23T06:17:48.413Z,154.87
2019-03-23T06:20:37.812Z,157.13
2019-03-23T06:23:27.334Z,132.57
2019-03-23T06:26:17.002Z,129.50
2019-03-23T06:29:06.821Z,138.47
2019-03-23T06:31:56.295Z,123.90
2019-03-23T06:34:45.948Z,125.13
2019-03-23T06:37:35.516Z,125.27
2019-03-23T06:40:25.206Z,124.10
2019-03-23T06:43:14.930Z,131.47
2019-03-23T06:46:04.414Z,129.53
2019-03-23T06:48:54.051Z,128.87
2019-03-23T06:51:43.204Z,114.67
2019-03-23T06:54:32.940Z,125.20
2019-03-23T06:57:22.123Z,127.27
2019-03-23T07:00:12.420Z,121.17
2019-03-23T07:03:01.944Z,126.50
2019-03-23T07:05:51.574Z,119.37
2019-03-23T07:08:41.353Z,121.83
2019-03-23T07:11:30.391Z,116.27
2019-03-23T07:14:19.773Z,120.13
2019-03-23T07:17:09.455Z,124.13
2019-03-23T07:19:59.209Z,105.17
2019-03-23T07:22:48.776Z,112.53
2019-03-23T07:25:38.671Z,112.37
2019-03-23T07:28:28.588Z,118.00
2019-03-23T07:31:19.138Z,112.13
2019-03-23T07:34:08.397Z,126.60
2019-03-23T07:36:57.695Z,117.23
2019-03-23T07:39:47.529Z,111.50
2019-03-23T07:42:37.098Z,118.20
2019-03-23T07:45:26.064Z,111.33
2019-03-23T07:48:16.186Z,97.70
2019-03-23T07:51:06.444Z,109.13
2019-03-23T07:53:55.868Z,114.67
2019-03-23T07:56:45.501Z,99.73
2019-03-23T07:59:35.026Z,103.10
2019-03-23T08:02:24.271Z,106.93
2019-03-23T08:05:13.646Z,103.10
2019-03-23T08:08:03.152Z,101.53
2019-03-23T08:10:52.980Z,103.93
2019-03-23T08:13:42.566Z,110.53
2019-03-23T08:16:31.444Z,111.90
2019-03-23T08:19:21.351Z,97.20
2019-03-23T08:22:11.307Z,103.87
2019-03-23T08:25:00.412Z,96.03
2019-03-23T08:27:50.082Z,96.90
2019-03-23T08:30:39.654Z,94.50
2019-03-23T08:33:28.804Z,90.87
2019-03-23T08:36:18.653Z,90.73
2019-03-23T08:39:08.988Z,93.83
2019-03-23T08:41:58.209Z,94.40
2019-03-23T08:44:47.971Z,92.27
2019-03-23T08:47:37.757Z,93.07
2019-03-23T08:50:27.451Z,91.00
2019-03-23T08:53:17.486Z,81.73
2019-03-23T08:56:06.767Z,91.30
2019-03-23T08:58:56.307Z,79.20
2019-03-23T09:01:45.704Z,80.20
2019-03-23T09:04:35.893Z,82.70
2019-03-23T09:07:25.893Z,76.43
2019-03-23T09:10:15.375Z,80.17
2019-03-23T09:13:04.960Z,86.20
2019-03-23T09:15:54.860Z,80.97
2019-03-23T09:18:44.020Z,80.30
2019-03-23T09:21:33.264Z,75.53
2019-03-23T09:24:23.104Z,88.67
2019-03-23T09:27:12.731Z,82.33
2019-03-23T09:30:01.818Z,83.33
2019-03-23T09:32:51.879Z,87.60
2019-03-23T09:35:41.594Z,83.60
2019-03-23T09:38:31.235Z,84.40
2019-03-23T09:41:21.371Z,84.03
2019-03-23T09:44:10.869Z,83.73
2019-03-23T09:47:00.782Z,84.47
2019-03-23T09:49:50.571Z,71.70
2019-03-23T09:52:40.415Z,83.50
2019-03-23T09:55:30.327Z,77.03
2019-03-23T09:58:19.416Z,77.03
2019-03-23T10:01:08.800Z,79.30
2019-03-23T10:03:58.562Z,80.17
2019-03-23T10:06:48.032Z,75.33
2019-03-23T10:09:38.072Z,75.10
2019-03-23T10:12:27.288Z,69.67
2019-03-23T10:15:16.864Z,73.80
2019-03-23T10:18:06.072Z,80.27
2019-03-23T10:20:56.028Z,75.40
2019-03-23T10:23:45.650Z,77.83
2019-03-23T10:26:35.606Z,74.50
2019-03-23T10:29:26.108Z,72.70
2019-03-23T10:32:15.472Z,71.03
2019-03-23T10:35:06.421Z,75.07
2019-03-23T10:37:55.914Z,68.33
2019-03-23T10:40:46.019Z,73.33
2019-03-23T10:43:35.638Z,67.30
2019-03-23T10:46:25.526Z,73.30
2019-03-23T10:49:15.122Z,64.30
2019-03-23T10:52:04.900Z,71.27
2019-03-23T10:54:54.671Z,71.13
2019-03-23T10:57:44.270Z,75.27
2019-03-23T11:00:34.133Z,81.73
2019-03-23T11:03:23.561Z,72.23
2019-03-23T11:06:13.044Z,69.00
2019-03-23T11:09:04.712Z,65.17
2019-03-23T11:11:54.163Z,62.70
2019-03-23T11:14:44.213Z,62.17
2019-03-23T11:17:33.837Z,62.20
2019-03-23T11:20:23.480Z,61.60
2019-03-23T11:23:13.377Z,69.07
2019-03-23T11:26:02.583Z,73.90
2019-03-23T11:28:52.052Z,64.93
2019-03-23T11:31:42.388Z,73.90
2019-03-23T11:34:31.926Z,65.50
2019-03-23T11:37:21.749Z,67.30
2019-03-23T11:40:11.988Z,66.07
2019-03-23T11:43:01.626Z,67.47
2019-03-23T11:45:51.730Z,64.27
2019-03-23T11:48:25.928Z,68.07
2019-03-23T11:50:56.507Z,65.70
2019-03-23T11:53:27.243Z,63.10
2019-03-23T11:55:57.777Z,70.13
2019-03-23T11:58:28.556Z,61.40
2019-03-23T12:00:59.669Z,70.80
2019-03-23T12:03:30.395Z,75.87
2019-03-23T12:06:00.971Z,71.53
2019-03-23T12:08:31.870Z,66.87
2019-03-23T12:11:03.318Z,70.03
2019-03-23T12:13:53.321Z,71.10
2019-03-23T12:16:43.269Z,66.60
2019-03-23T12:19:33.502Z,70.00
2019-03-23T12:22:23.169Z,69.23
2019-03-23T12:25:12.338Z,64.80
2019-03-23T12:28:02.129Z,63.13
2019-03-23T12:30:51.701Z,63.80
2019-03-23T12:33:41.391Z,66.33
2019-03-23T12:36:31.304Z,69.23
2019-03-23T12:39:20.528Z,68.23
2019-03-23T12:42:09.871Z,70.77
2019-03-23T12:44:59.258Z,74.50
2019-03-23T12:47:48.853Z,67.30
2019-03-23T12:50:38.864Z,67.70
2019-03-23T12:53:28.297Z,69.23
2019-03-23T12:56:18.137Z,66.73
2019-03-23T12:59:07.918Z,65.57
2019-03-23T13:01:57.879Z,74.97
2019-03-23T13:04:47.194Z,72.73
2019-03-23T13:07:37.010Z,76.60
2019-03-23T13:10:26.713Z,71.53
2019-03-23T13:13:16.305Z,69.23
2019-03-23T13:16:06.091Z,72.33
2019-03-23T13:18:55.205Z,64.50
2019-03-23T13:21:44.930Z,63.70
2019-03-23T13:24:34.883Z,69.73
2019-03-23T13:27:24.835Z,73.37
2019-03-23T13:30:16.087Z,60.20
2019-03-23T13:33:05.200Z,64.73
2019-03-23T13:35:55.440Z,70.40
2019-03-23T13:38:44.762Z,73.83
2019-03-23T13:41:34.529Z,63.77
2019-03-23T13:44:24.360Z,71.83
2019-03-23T13:47:13.914Z,72.63
2019-03-23T13:50:02.933Z,72.53
2019-03-23T13:52:52.966Z,70.23
2019-03-23T13:55:42.622Z,63.30
2019-03-23T13:58:32.307Z,72.13
2019-03-23T14:01:21.996Z,66.63
2019-03-23T14:04:12.245Z,71.10
2019-03-23T14:07:02.166Z,69.77
2019-03-23T14:09:51.590Z,65.33
2019-03-23T14:12:41.657Z,76.23
2019-03-23T14:15:30.932Z,68.30
2019-03-23T14:18:20.680Z,65.23
2019-03-23T14:20:51.437Z,62.70
2019-03-23T14:23:41.458Z,69.13
2019-03-23T14:26:31.218Z,73.77
2019-03-23T14:29:20.632Z,69.20
2019-03-23T14:31:51.384Z,66.27
2019-03-23T14:34:41.148Z,64.93
2019-03-23T14:37:30.231Z,68.27
2019-03-23T14:40:20.004Z,77.97
2019-03-23T14:43:10.682Z,67.93
2019-03-23T14:46:00.402Z,71.53
2019-03-23T14:48:50.107Z,69.43
2019-03-23T14:51:39.522Z,82.67
2019-03-23T14:54:29.347Z,70.83
2019-03-23T14:57:18.414Z,79.73
2019-03-23T15:00:09.572Z,70.60
2019-03-23T15:02:59.585Z,74.30
2019-03-23T15:05:49.360Z,79.23
2019-03-23T15:08:39.205Z,79.63
2019-03-23T15:11:29.140Z,77.80
2019-03-23T15:14:19.160Z,80.77
2019-03-23T15:17:08.767Z,78.40
2019-03-23T15:19:58.630Z,84.77
2019-03-23T15:22:48.379Z,79.73
2019-03-23T15:25:39.540Z,73.23
2019-03-23T15:28:29.557Z,75.80
2019-03-23T15:31:19.487Z,71.83
2019-03-23T15:34:09.257Z,78.00
2019-03-23T15:36:59.232Z,79.63
2019-03-23T15:39:48.991Z,78.27
2019-03-23T15:42:24.786Z,82.83
2019-03-23T15:44:52.709Z,82.30
2019-03-23T15:47:23.658Z,78.50
2019-03-23T15:50:13.117Z,75.40
2019-03-23T15:53:02.965Z,75.00
2019-03-23T15:55:52.974Z,73.63
2019-03-23T15:58:43.054Z,70.47
2019-03-23T16:01:33.218Z,73.00
2019-03-23T16:04:23.030Z,77.23
2019-03-23T16:07:12.449Z,74.93
2019-03-23T16:10:01.763Z,74.27
2019-03-23T16:12:51.380Z,70.90
2019-03-23T16:15:40.983Z,68.37
2019-03-23T16:18:30.177Z,74.70
2019-03-23T16:21:19.640Z,77.43
2019-03-23T16:24:09.119Z,78.27
2019-03-23T16:26:59.189Z,73.77
2019-03-23T16:29:48.762Z,76.57
2019-03-23T16:32:38.193Z,84.13
2019-03-23T16:35:27.607Z,74.07
2019-03-23T16:38:17.276Z,76.43
2019-03-23T16:41:07.237Z,78.87
2019-03-23T16:43:57.266Z,80.07
2019-03-23T16:46:48.845Z,83.20
2019-03-23T16:49:38.689Z,77.60
2019-03-23T16:52:28.550Z,82.73
2019-03-23T16:55:20.151Z,79.77
2019-03-23T16:58:16.023Z,77.47
2019-03-23T17:01:00.228Z,85.87
2019-03-23T17:03:34.458Z,83.47
2019-03-23T17:06:23.705Z,85.40
2019-03-23T17:09:12.809Z,81.63
2019-03-23T17:12:02.516Z,87.30
2019-03-23T17:14:52.082Z,80.57
2019-03-23T17:17:41.934Z,79.23
2019-03-23T17:20:31.892Z,86.60
2019-03-23T17:23:21.130Z,87.03
2019-03-23T17:26:10.677Z,93.67
2019-03-23T17:29:00.111Z,88.53
2019-03-23T17:31:49.982Z,94.37
2019-03-23T17:34:39.684Z,90.03
2019-03-23T17:37:28.831Z,87.17
2019-03-23T17:40:18.495Z,89.80
2019-03-23T17:43:08.663Z,89.77
2019-03-23T17:45:58.208Z,89.03
2019-03-23T17:48:48.891Z,93.27
2019-03-23T17:51:39.330Z,83.17
2019-03-23T17:54:28.352Z,79.43
2019-03-23T17:57:17.958Z,90.87
2019-03-23T18:00:08.166Z,83.57
2019-03-23T18:02:57.502Z,94.57
2019-03-23T18:05:46.619Z,89.73
2019-03-23T18:08:36.123Z,84.20
2019-03-23T18:11:07.067Z,95.80
2019-03-23T18:13:56.365Z,88.73
2019-03-23T18:16:46.011Z,90.67
2019-03-23T18:19:35.987Z,88.63
2019-03-23T18:22:25.868Z,94.63
2019-03-23T18:25:16.074Z,97.93
2019-03-23T18:28:05.849Z,93.50
2019-03-23T18:30:55.729Z,90.90
2019-03-23T18:33:45.457Z,100.23
2019-03-23T18:36:35.934Z,102.43
2019-03-23T18:39:25.951Z,100.57
2019-03-23T18:42:15.592Z,98.37
2019-03-23T18:45:05.698Z,114.10
2019-03-23T18:47:55.414Z,98.97
2019-03-23T18:50:45.198Z,101.60
2019-03-23T18:53:34.989Z,97.53
2019-03-23T18:56:24.138Z,90.23
2019-03-23T18:59:14.135Z,103.13
2019-03-23T19:02:03.484Z,103.67
2019-03-23T19:04:54.332Z,97.47
2019-03-23T19:07:43.599Z,102.27
2019-03-23T19:10:32.792Z,104.60
2019-03-23T19:13:23.075Z,97.40
2019-03-23T19:16:12.755Z,105.20
2019-03-23T19:19:02.079Z,106.13
2019-03-23T19:21:51.906Z,101.30
2019-03-23T19:24:41.321Z,109.00
2019-03-23T19:27:30.916Z,110.47
2019-03-23T19:30:20.979Z,118.20
2019-03-23T19:33:10.451Z,103.20
2019-03-23T19:36:00.236Z,114.57
2019-03-23T19:38:49.858Z,118.47
2019-03-23T19:41:39.713Z,112.30
2019-03-23T19:44:29.282Z,109.67
2019-03-23T19:47:18.942Z,109.97
2019-03-23T19:50:09.579Z,111.40
2019-03-23T19:52:59.197Z,111.70
2019-03-23T19:55:48.512Z,101.97
2019-03-23T19:58:38.251Z,99.20
2019-03-23T20:01:27.799Z,95.40
2019-03-23T20:04:17.588Z,88.40
2019-03-23T20:07:07.232Z,76.83
2019-03-23T20:09:56.644Z,78.20
2019-03-23T20:12:46.777Z,74.03
2019-03-23T20:15:36.924Z,73.47
2019-03-23T20:18:26.612Z,68.77
2019-03-23T20:21:15.894Z,64.80
2019-03-23T20:24:05.503Z,54.67
2019-03-23T20:26:55.160Z,59.83
2019-03-23T20:29:44.667Z,54.23
2019-03-23T20:32:34.881Z,50.17
2019-03-23T20:35:24.171Z,45.13
2019-03-23T20:38:13.786Z,47.47
2019-03-23T20:41:03.273Z,42.13
2019-03-23T20:43:52.986Z,42.20
2019-03-23T20:46:43.999Z,38.80
2019-03-23T20:49:33.965Z,38.93
2019-03-23T20:52:23.848Z,35.25
2019-03-23T20:55:24.441Z,39.07
2019-03-23T20:58:13.968Z,35.47
2019-03-23T21:01:03.909Z,38.30
2019-03-23T21:03:53.887Z,36.33
2019-03-23T21:06:43.649Z,34.33
2019-03-23T21:09:32.570Z,39.60
2019-03-23T21:12:22.421Z,33.80
2019-03-23T21:15:12.170Z,37.13
2019-03-23T21:18:02.007Z,39.13
2019-03-23T21:20:51.652Z,32.43
2019-03-23T21:23:41.318Z,37.03
2019-03-23T21:26:31.208Z,33.70
2019-03-23T21:29:20.924Z,35.07
2019-03-23T21:32:10.854Z,33.07
2019-03-23T21:35:00.364Z,34.20
2019-03-23T21:37:49.965Z,36.60
2019-03-23T21:40:39.502Z,36.53
2019-03-23T21:43:29.301Z,38.60
2019-03-23T21:46:18.946Z,36.93
2019-03-23T21:49:08.541Z,35.90
2019-03-23T21:51:58.291Z,35.90
2019-03-23T21:54:47.739Z,33.93
2019-03-23T21:57:37.799Z,31.83
2019-03-23T22:00:34.435Z,36.20
2019-03-23T22:03:24.185Z,33.90
2019-03-23T22:05:56.468Z,34.03
2019-03-23T22:08:46.341Z,33.73
2019-03-23T22:11:36.425Z,31.00
2019-03-23T22:14:25.905Z,31.40
2019-03-23T22:17:02.790Z,32.03
2019-03-23T22:19:52.826Z,31.20
2019-03-23T22:22:42.630Z,33.43
2019-03-23T22:25:32.297Z,34.30
2019-03-23T22:28:05.684Z,29.90
2019-03-23T22:30:55.295Z,32.43
2019-03-23T22:33:44.670Z,28.33
2019-03-23T22:36:34.224Z,25.10
2019-03-23T22:39:24.038Z,29.70
2019-03-23T22:42:14.267Z,29.80
2019-03-23T22:45:04.989Z,30.03
2019-03-23T22:47:55.218Z,28.00
2019-03-23T22:50:45.021Z,26.20
2019-03-23T22:53:34.576Z,26.30
2019-03-23T22:56:24.234Z,26.03
2019-03-23T22:59:15.453Z,21.83
2019-03-23T23:02:05.321Z,25.33
2019-03-23T23:04:55.019Z,19.90
2019-03-23T23:07:25.854Z,18.77
2019-03-23T23:10:15.869Z,18.77
2019-03-23T23:13:04.989Z,18.50
2019-03-23T23:15:54.471Z,17.63
2019-03-23T23:18:43.945Z,18.80
2019-03-23T23:21:33.221Z,13.73
2019-03-23T23:24:22.697Z,24.20
2019-03-23T23:27:12.405Z,13.93
2019-03-23T23:30:02.456Z,17.67
2019-03-23T23:32:52.360Z,14.43
2019-03-23T23:35:41.287Z,12.97
2019-03-23T23:38:30.658Z,14.97
2019-03-23T23:41:20.400Z,14.53
2019-03-23T23:44:10.115Z,19.20
2019-03-23T23:47:00.611Z,13.80
2019-03-23T23:49:50.744Z,16.93
2019-03-23T23:52:39.887Z,19.90
2019-03-23T23:55:29.172Z,20.40
2019-03-23T23:58:18.793Z,18.97
